Time;durP1;ratioP1;P1;durP2;ratioP2;P2;SDS_P1;SDS_P2;PMS_P1;PMS_P2;Temp;Humidity;BMP_temperature;BMP_pressure;BME280_temperature;BME280_humidity;BME280_pressure;Samples;Min_cycle;Max_cycle;Signal;HPM_P1;HPM_P2
2021/04/29 00:03:53;;;;;;;9.10;5.07;;;7.70;84.00;;;;;;5916730;40;20096;-69
2021/04/29 00:07:58;;;;;;;8.10;4.90;;;7.70;83.60;;;;;;5915234;40;20091;-69
2021/04/29 00:12:04;;;;;;;12.48;4.50;;;7.70;84.80;;;;;;5919238;40;20331;-69
2021/04/29 00:16:08;;;;;;;9.90;4.00;;;7.70;85.00;;;;;;5919914;40;20335;-70
2021/04/29 00:20:18;;;;;;;9.65;5.53;;;7.70;89.00;;;;;;5924476;40;20056;-69
2021/04/29 00:24:25;;;;;;;9.82;5.63;;;7.70;84.80;;;;;;5928334;40;20434;-70
2021/04/29 00:28:32;;;;;;;12.95;5.32;;;7.70;85.20;;;;;;5925043;40;20416;-71
2021/04/29 00:32:43;;;;;;;9.57;5.47;;;7.70;85.40;;;;;;5929961;40;20092;-70
2021/04/29 00:36:50;;;;;;;14.00;6.10;;;7.70;85.20;;;;;;5916286;40;20178;-71
2021/04/29 00:40:55;;;;;;;10.45;5.28;;;7.70;84.60;;;;;;5916193;40;20048;-70
2021/04/29 00:44:59;;;;;;;12.60;5.70;;;7.70;85.10;;;;;;5918543;40;20056;-70
2021/04/29 00:49:04;;;;;;;11.45;5.82;;;7.80;85.10;;;;;;5918877;40;20048;-70
2021/04/29 00:53:06;;;;;;;12.25;5.93;;;7.70;85.60;;;;;;5926907;40;20069;-70
2021/04/29 00:57:11;;;;;;;13.18;5.60;;;7.80;84.80;;;;;;5927920;40;20084;-70
2021/04/29 01:01:16;;;;;;;9.57;5.10;;;7.80;85.60;;;;;;5919673;40;20048;-69
2021/04/29 01:05:36;;;;;;;16.85;6.88;;;7.70;86.60;;;;;;5928415;40;20067;-70
2021/04/29 01:09:56;;;;;;;10.70;5.60;;;7.80;87.80;;;;;;5929073;40;20355;-70
2021/04/29 01:14:04;;;;;;;9.82;4.70;;;7.80;86.30;;;;;;5921500;40;20335;-70
2021/04/29 01:18:10;;;;;;;12.55;6.45;;;7.80;87.30;;;;;;5919928;40;20052;-70
2021/04/29 01:22:17;;;;;;;11.57;6.38;;;7.80;85.80;;;;;;5929334;40;20056;-70
2021/04/29 01:26:33;;;;;;;10.50;5.75;;;7.80;86.00;;;;;;5930092;40;20365;-70
2021/04/29 01:30:38;;;;;;;10.65;6.20;;;7.80;88.60;;;;;;5920943;40;20060;-70
2021/04/29 01:34:44;;;;;;;11.70;3.88;;;7.80;87.00;;;;;;5929567;40;20049;-69
2021/04/29 01:38:54;;;;;;;12.38;7.60;;;7.80;89.00;;;;;;5925967;40;20060;-69
2021/04/29 01:43:01;;;;;;;13.27;6.63;;;7.80;86.50;;;;;;5930310;40;20080;-70
2021/04/29 01:47:06;;;;;;;13.90;4.97;;;7.80;86.70;;;;;;5918297;40;20063;-69
2021/04/29 01:51:11;;;;;;;11.35;6.28;;;7.80;88.70;;;;;;5920849;40;20084;-70
2021/04/29 01:55:18;;;;;;;13.68;7.20;;;7.90;88.20;;;;;;5928898;39;20080;-69
2021/04/29 01:59:22;;;;;;;12.27;7.10;;;7.80;88.10;;;;;;5930080;40;20624;-68
2021/04/29 02:03:27;;;;;;;10.63;5.35;;;7.80;87.80;;;;;;5929106;40;20060;-69
2021/04/29 02:07:32;;;;;;;12.07;5.75;;;7.80;88.60;;;;;;5926224;40;20087;-69
2021/04/29 02:11:52;;;;;;;15.40;7.15;;;7.80;88.30;;;;;;5931227;40;20041;-69
2021/04/29 02:16:07;;;;;;;9.30;4.53;;;7.80;90.30;;;;;;5926955;40;20161;-70
2021/04/29 02:20:13;;;;;;;12.40;6.72;;;7.80;90.50;;;;;;5919788;40;20064;-70
2021/04/29 02:24:23;;;;;;;16.75;7.85;;;7.80;89.10;;;;;;5919608;40;20060;-69
2021/04/29 02:28:29;;;;;;;12.40;5.85;;;7.80;88.30;;;;;;5919001;40;20045;-70
2021/04/29 02:32:34;;;;;;;11.88;6.55;;;7.80;88.90;;;;;;5920406;40;20108;-69
2021/04/29 02:36:38;;;;;;;14.23;7.35;;;7.80;89.10;;;;;;5926341;40;20060;-69
2021/04/29 02:40:45;;;;;;;9.20;5.28;;;7.80;89.30;;;;;;5925395;40;20451;-70
2021/04/29 02:44:49;;;;;;;13.40;6.78;;;7.80;89.50;;;;;;5926787;40;20055;-70
2021/04/29 02:48:56;;;;;;;10.07;5.40;;;7.80;88.90;;;;;;5927096;40;20053;-70
2021/04/29 02:53:06;;;;;;;11.93;7.13;;;7.80;89.70;;;;;;5919918;40;20617;-69
2021/04/29 02:57:22;;;;;;;11.10;6.05;;;7.80;88.20;;;;;;5921579;40;20134;-69
2021/04/29 03:01:29;;;;;;;11.68;6.07;;;7.80;87.40;;;;;;5918694;40;20078;-70
2021/04/29 03:05:33;;;;;;;10.75;6.20;;;7.80;87.50;;;;;;5929181;40;20045;-69
2021/04/29 03:09:38;;;;;;;11.70;6.47;;;7.80;87.50;;;;;;5929028;40;20185;-69
2021/04/29 03:13:42;;;;;;;10.85;6.60;;;7.80;86.70;;;;;;5927086;40;20084;-70
2021/04/29 03:17:47;;;;;;;9.52;5.60;;;7.80;87.30;;;;;;5927868;40;20039;-69
2021/04/29 03:22:09;;;;;;;6.85;3.58;;;7.70;87.30;;;;;;5928507;40;20045;-69
2021/04/29 03:26:18;;;;;;;18.05;5.85;;;7.70;88.80;;;;;;5919765;40;20385;-69
2021/04/29 03:30:25;;;;;;;10.20;6.57;;;7.70;86.70;;;;;;5919855;40;20083;-69
2021/04/29 03:34:29;;;;;;;12.00;6.90;;;7.70;86.70;;;;;;5927557;40;20064;-70
2021/04/29 03:38:34;;;;;;;12.32;6.22;;;7.70;86.90;;;;;;5918888;40;20080;-70
2021/04/29 03:42:40;;;;;;;11.90;6.55;;;7.60;87.20;;;;;;5927068;40;20520;-70
2021/04/29 03:46:47;;;;;;;7.07;3.65;;;7.70;87.40;;;;;;5914733;40;20052;-70
2021/04/29 03:50:53;;;;;;;13.10;6.90;;;7.60;88.40;;;;;;5928156;40;20428;-70
2021/04/29 03:54:59;;;;;;;10.13;6.80;;;7.60;87.50;;;;;;5920549;40;20396;-70
2021/04/29 03:59:06;;;;;;;6.32;3.90;;;7.70;87.50;;;;;;5918610;40;20056;-70
2021/04/29 04:03:15;;;;;;;12.32;6.07;;;7.70;87.90;;;;;;5929358;40;20060;-70
2021/04/29 04:07:19;;;;;;;9.68;5.78;;;8.80;88.10;;;;;;5927062;40;20097;-70
2021/04/29 04:11:26;;;;;;;9.70;5.80;;;7.70;87.70;;;;;;5920710;40;20044;-70
2021/04/29 04:15:35;;;;;;;12.48;7.03;;;7.70;87.90;;;;;;5919273;40;20728;-70
2021/04/29 04:19:39;;;;;;;11.57;5.85;;;7.70;87.40;;;;;;5927814;40;20040;-70
2021/04/29 04:23:45;;;;;;;9.60;4.65;;;7.70;87.70;;;;;;5927581;40;20327;-70
2021/04/29 04:27:50;;;;;;;11.88;5.85;;;7.70;88.40;;;;;;5926782;39;20105;-70
2021/04/29 04:31:54;;;;;;;8.82;4.72;;;7.70;88.00;;;;;;5910762;40;20056;-70
2021/04/29 04:35:58;;;;;;;10.07;5.80;;;7.70;88.40;;;;;;5926036;40;20917;-70
2021/04/29 04:40:03;;;;;;;12.77;6.45;;;7.70;88.10;;;;;;5927078;40;20060;-70
2021/04/29 04:44:08;;;;;;;13.95;5.75;;;7.70;87.80;;;;;;5925495;40;20098;-70
2021/04/29 04:48:15;;;;;;;12.95;4.90;;;7.70;87.90;;;;;;5926616;40;20096;-69
2021/04/29 04:52:19;;;;;;;12.55;6.28;;;7.80;88.10;;;;;;5917967;40;20041;-69
2021/04/29 04:56:23;;;;;;;9.48;4.43;;;7.70;88.40;;;;;;5917339;40;20048;-70
2021/04/29 05:00:28;;;;;;;15.25;6.40;;;7.80;90.50;;;;;;5925550;40;20052;-70
2021/04/29 05:04:34;;;;;;;9.25;5.65;;;7.70;88.40;;;;;;5925455;40;20467;-70
2021/04/29 05:08:39;;;;;;;11.73;6.82;;;7.70;89.10;;;;;;5927535;40;20409;-69
2021/04/29 05:12:45;;;;;;;12.48;7.05;;;7.80;88.60;;;;;;5926921;40;20049;-71
2021/04/29 05:16:49;;;;;;;15.43;6.55;;;7.80;87.50;;;;;;5916015;40;20059;-70
2021/04/29 05:20:54;;;;;;;13.20;5.60;;;7.80;88.20;;;;;;5927204;40;20907;-71
2021/04/29 05:24:58;;;;;;;13.95;6.30;;;7.80;88.40;;;;;;5919025;40;20053;-69
2021/04/29 05:29:07;;;;;;;10.75;6.38;;;7.80;88.40;;;;;;5916441;40;20060;-69
2021/04/29 05:33:14;;;;;;;7.78;4.78;;;7.90;87.70;;;;;;5924042;40;20060;-69
2021/04/29 05:37:26;;;;;;;10.27;5.32;;;7.90;87.90;;;;;;5925729;39;20520;-76
2021/04/29 05:41:31;;;;;;;9.48;4.68;;;7.90;88.80;;;;;;5924485;40;20581;-73
2021/04/29 05:45:40;;;;;;;13.20;5.63;;;7.60;89.10;;;;;;5928246;40;20119;-73
2021/04/29 05:49:47;;;;;;;11.90;6.50;;;7.80;89.60;;;;;;5908682;40;21009;-74
2021/04/29 05:53:51;;;;;;;11.07;5.85;;;7.90;89.50;;;;;;5929547;40;20052;-74
2021/04/29 05:58:00;;;;;;;9.70;5.50;;;7.90;89.80;;;;;;5928200;40;20056;-74
2021/04/29 06:02:06;;;;;;;9.15;4.78;;;8.00;89.90;;;;;;5921887;40;20060;-69
2021/04/29 06:06:17;;;;;;;8.98;4.45;;;8.00;90.00;;;;;;5929456;39;20508;-69
2021/04/29 06:10:22;;;;;;;10.27;5.70;;;8.00;89.40;;;;;;5925234;40;20437;-69
2021/04/29 06:14:27;;;;;;;10.15;6.30;;;7.80;89.20;;;;;;5927798;40;20044;-71
2021/04/29 06:18:32;;;;;;;9.55;4.93;;;8.00;89.90;;;;;;5929937;40;20076;-69
2021/04/29 06:22:37;;;;;;;12.38;7.00;;;8.00;90.10;;;;;;5931092;40;20095;-69
2021/04/29 06:26:41;;;;;;;15.15;6.65;;;8.00;90.10;;;;;;5929304;40;20308;-70
2021/04/29 06:30:45;;;;;;;13.18;6.32;;;8.10;90.10;;;;;;5926817;40;20420;-72
2021/04/29 06:34:50;;;;;;;13.85;7.60;;;8.10;90.00;;;;;;5931685;40;20479;-69
2021/04/29 06:38:56;;;;;;;10.43;5.97;;;8.10;90.10;;;;;;5929215;39;20036;-70
2021/04/29 06:43:00;;;;;;;11.35;7.13;;;8.10;90.00;;;;;;5921166;40;20455;-69
2021/04/29 06:47:04;;;;;;;10.80;6.72;;;8.10;90.00;;;;;;5929812;40;20040;-70
2021/04/29 06:51:11;;;;;;;11.02;6.97;;;8.10;90.20;;;;;;5929775;40;20133;-71
2021/04/29 06:55:35;;;;;;;14.80;7.20;;;8.10;90.70;;;;;;5919588;40;20048;-71
2021/04/29 06:59:39;;;;;;;14.40;6.80;;;8.00;90.80;;;;;;5920836;40;20466;-70
2021/04/29 07:03:56;;;;;;;12.30;6.63;;;8.00;91.10;;;;;;5917756;40;20116;-69
2021/04/29 07:08:06;;;;;;;11.32;6.70;;;8.00;90.80;;;;;;5924376;40;20505;-70
2021/04/29 07:12:12;;;;;;;10.98;7.22;;;8.00;90.80;;;;;;5919654;40;20068;-72
2021/04/29 07:16:17;;;;;;;8.40;5.07;;;8.00;90.70;;;;;;5909754;40;20381;-72
2021/04/29 07:20:23;;;;;;;17.70;8.82;;;7.80;90.70;;;;;;5922542;40;20060;-72
2021/04/29 07:24:32;;;;;;;18.08;7.55;;;8.00;90.80;;;;;;5915312;40;20048;-72
2021/04/29 07:28:39;;;;;;;13.05;7.53;;;8.00;90.80;;;;;;5921941;40;20404;-72
2021/04/29 07:32:47;;;;;;;11.65;5.38;;;8.10;90.70;;;;;;5909760;40;20072;-72
2021/04/29 07:36:51;;;;;;;15.85;7.85;;;8.10;90.60;;;;;;5922400;40;20342;-72
2021/04/29 07:40:58;;;;;;;9.02;5.40;;;8.10;90.50;;;;;;5916039;40;20839;-72
2021/04/29 07:45:05;;;;;;;13.20;7.97;;;8.20;90.50;;;;;;5931453;40;20041;-69
2021/04/29 07:49:07;;;;;;;9.15;5.15;;;8.30;90.30;;;;;;5921236;40;20036;-72
2021/04/29 07:53:11;;;;;;;5.55;2.80;;;8.40;90.30;;;;;;5926839;40;20060;-72
2021/04/29 07:57:20;;;;;;;14.55;7.15;;;8.50;91.60;;;;;;5928650;40;20044;-71
2021/04/29 08:01:29;;;;;;;14.57;7.78;;;8.70;89.70;;;;;;5929860;40;20060;-72
2021/04/29 08:05:35;;;;;;;9.55;6.35;;;8.70;89.40;;;;;;5928581;40;20036;-72
2021/04/29 08:09:52;;;;;;;14.95;8.77;;;8.40;88.90;;;;;;5928070;40;20052;-72
2021/04/29 08:14:04;;;;;;;12.13;7.83;;;8.70;89.40;;;;;;5926249;40;20056;-73
2021/04/29 08:18:10;;;;;;;14.05;8.02;;;8.80;90.00;;;;;;5919578;40;20064;-73
2021/04/29 08:22:17;;;;;;;8.07;5.45;;;8.80;90.10;;;;;;5916023;40;20047;-68
2021/04/29 08:26:25;;;;;;;23.05;8.27;;;8.70;90.90;;;;;;5925419;39;20060;-69
2021/04/29 08:30:34;;;;;;;14.05;8.38;;;8.60;91.00;;;;;;5925616;40;20052;-70
2021/04/29 08:34:39;;;;;;;15.63;8.25;;;8.70;91.10;;;;;;5922607;40;20066;-68
2021/04/29 08:39:05;;;;;;;12.32;7.03;;;8.70;90.90;;;;;;5926154;40;20712;-70
2021/04/29 08:43:09;;;;;;;13.95;8.73;;;8.80;90.90;;;;;;5922691;40;20092;-69
2021/04/29 08:47:18;;;;;;;10.95;6.10;;;8.90;90.60;;;;;;5917518;39;20084;-68
2021/04/29 08:51:45;;;;;;;14.65;7.00;;;8.90;90.20;;;;;;5919251;40;20500;-68
2021/04/29 08:55:49;;;;;;;14.55;8.27;;;9.10;90.10;;;;;;5915535;40;20474;-70
2021/04/29 08:59:53;;;;;;;14.88;8.43;;;9.30;89.40;;;;;;5923780;40;20056;-70
2021/04/29 09:04:10;;;;;;;10.75;5.45;;;9.50;88.80;;;;;;5894824;40;20040;-69
2021/04/29 09:08:24;;;;;;;12.85;7.15;;;9.50;89.70;;;;;;5926065;39;20052;-72
2021/04/29 09:12:43;;;;;;;12.32;8.15;;;9.60;88.70;;;;;;5928956;40;20320;-73
2021/04/29 09:16:47;;;;;;;11.23;6.45;;;9.70;88.80;;;;;;5919810;40;20309;-73
2021/04/29 09:20:58;;;;;;;12.85;8.93;;;9.70;88.80;;;;;;5935150;40;20408;-73
2021/04/29 09:25:11;;;;;;;10.73;5.95;;;9.70;88.40;;;;;;5923829;40;20080;-73
2021/04/29 09:29:18;;;;;;;17.15;8.32;;;9.80;90.00;;;;;;5930746;40;20334;-73
2021/04/29 09:33:30;;;;;;;14.85;8.52;;;9.80;88.10;;;;;;5926708;40;20044;-73
2021/04/29 09:37:38;;;;;;;;;;;9.90;88.30;;;;;;5931795;40;20129;-72
2021/04/29 09:41:46;;;;;;;12.55;7.93;;;9.90;90.20;;;;;;5922627;40;19940;-73
2021/04/29 09:45:56;;;;;;;13.50;6.97;;;9.80;88.30;;;;;;5929444;40;20068;-73
2021/04/29 09:49:58;;;;;;;12.25;7.13;;;9.80;89.00;;;;;;5924374;40;20137;-71
2021/04/29 09:54:02;;;;;;;12.70;6.88;;;9.80;88.20;;;;;;5934024;40;20053;-70
2021/04/29 09:58:09;;;;;;;13.55;7.10;;;9.70;88.60;;;;;;5932574;40;20040;-73
2021/04/29 10:02:15;;;;;;;13.35;7.43;;;9.70;88.70;;;;;;5921497;40;20495;-73
2021/04/29 10:06:25;;;;;;;9.63;5.13;;;9.70;88.30;;;;;;5933263;40;20406;-74
2021/04/29 10:10:32;;;;;;;14.93;7.78;;;9.90;88.30;;;;;;5935113;40;20052;-74
2021/04/29 10:14:49;;;;;;;13.63;8.10;;;10.00;87.80;;;;;;5931298;40;20624;-73
2021/04/29 10:18:58;;;;;;;13.50;7.90;;;10.10;87.80;;;;;;5921706;40;20059;-73
2021/04/29 10:23:09;;;;;;;13.88;8.48;;;10.00;87.70;;;;;;5924274;40;20064;-73
2021/04/29 10:27:21;;;;;;;13.63;8.73;;;9.90;88.20;;;;;;5924736;40;20057;-73
2021/04/29 10:31:30;;;;;;;;;;;9.80;88.40;;;;;;5924762;40;20041;-73
2021/04/29 10:35:57;;;;;;;13.23;6.28;;;9.80;88.90;;;;;;5929517;40;20243;-73
2021/04/29 10:40:03;;;;;;;14.88;9.25;;;9.70;89.30;;;;;;5919258;40;20075;-72
2021/04/29 10:44:11;;;;;;;19.08;9.75;;;9.70;89.10;;;;;;5929439;40;20508;-72
2021/04/29 10:48:15;;;;;;;14.35;8.10;;;9.70;89.40;;;;;;5920100;40;20059;-72
2021/04/29 10:52:20;;;;;;;12.95;7.60;;;9.80;89.80;;;;;;5922973;40;20088;-73
2021/04/29 10:56:23;;;;;;;16.73;10.18;;;9.70;89.20;;;;;;5929189;40;20044;-72
2021/04/29 11:00:32;;;;;;;14.52;9.35;;;9.70;89.90;;;;;;5930117;40;20052;-72
2021/04/29 11:04:42;;;;;;;15.45;9.50;;;9.70;90.00;;;;;;5930435;40;20063;-72
2021/04/29 11:08:50;;;;;;;19.77;8.45;;;9.70;90.30;;;;;;5932645;40;20085;-73
2021/04/29 11:12:56;;;;;;;19.52;9.88;;;9.60;90.20;;;;;;5922427;40;20240;-72
2021/04/29 11:17:02;;;;;;;16.50;8.70;;;9.50;90.60;;;;;;5929215;40;20044;-72
2021/04/29 11:21:09;;;;;;;13.38;7.95;;;9.50;90.70;;;;;;5924097;40;20077;-72
2021/04/29 11:25:13;;;;;;;17.85;9.50;;;9.40;91.00;;;;;;5931972;40;20056;-73
2021/04/29 11:29:20;;;;;;;19.30;10.95;;;10.40;91.30;;;;;;5921721;40;20145;-73
2021/04/29 11:33:35;;;;;;;14.73;7.68;;;9.40;90.70;;;;;;5924849;40;20040;-73
2021/04/29 11:37:47;;;;;;;15.40;10.27;;;9.50;91.10;;;;;;5926589;40;20041;-72
2021/04/29 11:41:51;;;;;;;16.33;9.32;;;9.50;91.10;;;;;;5926661;40;20044;-72
2021/04/29 11:45:55;;;;;;;21.00;9.77;;;9.40;91.40;;;;;;5916120;40;20417;-72
2021/04/29 11:49:59;;;;;;;15.80;10.38;;;9.40;91.30;;;;;;5917128;40;20067;-72
2021/04/29 11:54:06;;;;;;;16.98;9.18;;;9.40;91.30;;;;;;5929566;40;20069;-72
2021/04/29 11:58:13;;;;;;;13.13;7.10;;;9.40;91.30;;;;;;5915039;39;20138;-72
2021/04/29 12:02:16;;;;;;;17.75;11.27;;;9.40;91.90;;;;;;5925798;40;20056;-72
2021/04/29 12:06:23;;;;;;;17.23;8.38;;;9.40;91.30;;;;;;5926873;40;20056;-72
2021/04/29 12:10:48;;;;;;;19.77;11.13;;;9.40;91.60;;;;;;5929420;40;20063;-71
2021/04/29 12:14:58;;;;;;;16.83;10.43;;;9.30;91.50;;;;;;5918998;40;20070;-75
2021/04/29 12:19:03;;;;;;;18.02;10.50;;;9.30;91.70;;;;;;5927253;40;20033;-79
2021/04/29 12:23:12;;;;;;;14.75;10.68;;;9.30;91.60;;;;;;5925714;40;20040;-76
2021/04/29 12:27:21;;;;;;;16.88;10.82;;;9.40;91.50;;;;;;5910004;40;20053;-79
2021/04/29 12:31:26;;;;;;;23.27;11.60;;;9.40;91.50;;;;;;5926635;40;20138;-76
2021/04/29 12:35:37;;;;;;;18.77;11.35;;;9.40;91.20;;;;;;5920293;40;20129;-76
2021/04/29 12:39:46;;;;;;;16.15;11.05;;;9.50;91.40;;;;;;5915796;40;20060;-73
2021/04/29 12:44:05;;;;;;;17.98;10.50;;;9.50;91.60;;;;;;5924017;40;20075;-75
2021/04/29 12:48:21;;;;;;;16.55;12.00;;;9.50;91.80;;;;;;5924403;40;20044;-73
2021/04/29 12:52:31;;;;;;;19.48;11.85;;;9.50;91.50;;;;;;5927627;39;20060;-74
2021/04/29 12:56:40;;;;;;;19.27;11.13;;;9.60;91.40;;;;;;5904295;40;20068;-76
2021/04/29 13:00:54;;;;;;;16.92;10.15;;;9.60;91.40;;;;;;5924870;40;20178;-76
2021/04/29 13:05:08;;;;;;;17.80;10.40;;;9.60;91.50;;;;;;5921606;40;20052;-76
2021/04/29 13:09:13;;;;;;;18.95;11.55;;;9.60;91.50;;;;;;5927705;40;20040;-76
2021/04/29 13:13:27;;;;;;;17.67;11.32;;;9.60;91.50;;;;;;5918409;40;20044;-76
2021/04/29 13:17:34;;;;;;;18.05;11.13;;;9.60;91.60;;;;;;5929506;40;20081;-76
2021/04/29 13:21:39;;;;;;;14.43;10.15;;;9.50;91.50;;;;;;5927104;40;20082;-76
2021/04/29 13:25:44;;;;;;;18.63;11.73;;;9.60;91.90;;;;;;5929935;40;20052;-75
2021/04/29 13:29:50;;;;;;;18.98;11.30;;;9.50;91.90;;;;;;5930573;40;20404;-76
2021/04/29 13:33:58;;;;;;;19.08;12.30;;;9.50;91.70;;;;;;5923251;40;20056;-76
2021/04/29 13:38:03;;;;;;;19.90;11.38;;;9.50;91.50;;;;;;5928376;40;20060;-76
2021/04/29 13:42:09;;;;;;;16.92;12.98;;;9.50;92.10;;;;;;5930718;40;20412;-76
2021/04/29 13:46:16;;;;;;;18.25;11.82;;;9.50;91.80;;;;;;5922546;40;20071;-76
2021/04/29 13:50:17;;;;;;;16.83;11.67;;;9.50;91.90;;;;;;5921655;40;20048;-76
2021/04/29 13:54:23;;;;;;;20.80;12.68;;;9.50;91.50;;;;;;5914405;40;20064;-75
2021/04/29 13:58:28;;;;;;;18.67;11.52;;;9.40;92.60;;;;;;5920691;40;20044;-75
2021/04/29 14:02:32;;;;;;;16.60;11.20;;;9.40;92.50;;;;;;5912626;40;20096;-75
2021/04/29 14:06:36;;;;;;;19.90;10.32;;;9.30;92.50;;;;;;5923243;40;20064;-76
2021/04/29 14:10:43;;;;;;;18.88;12.15;;;9.00;92.90;;;;;;5927580;39;20059;-75
2021/04/29 14:14:47;;;;;;;16.85;11.38;;;9.20;92.70;;;;;;5928078;40;20169;-74
2021/04/29 14:18:54;;;;;;;18.75;13.82;;;9.10;93.30;;;;;;5926040;40;20045;-76
2021/04/29 14:23:00;;;;;;;19.55;11.95;;;9.10;93.10;;;;;;5925208;40;20078;-75
2021/04/29 14:27:08;;;;;;;21.13;13.45;;;9.00;93.70;;;;;;5929290;40;20048;-75
2021/04/29 14:31:10;;;;;;;18.40;11.68;;;9.00;92.90;;;;;;5917163;40;20044;-75
2021/04/29 14:35:15;;;;;;;20.45;12.07;;;9.00;93.30;;;;;;5929275;40;20482;-74
2021/04/29 14:39:21;;;;;;;17.52;12.35;;;9.00;93.60;;;;;;5927488;40;20044;-74
2021/04/29 14:43:45;;;;;;;19.58;11.68;;;9.00;93.60;;;;;;5925705;40;20954;-73
2021/04/29 14:47:52;;;;;;;20.23;14.15;;;9.10;93.60;;;;;;5928526;40;20064;-74
2021/04/29 14:51:59;;;;;;;17.48;10.82;;;9.10;93.60;;;;;;5927260;40;20055;-74
2021/04/29 14:56:05;;;;;;;16.73;12.07;;;9.20;93.90;;;;;;5920214;40;20052;-74
2021/04/29 15:00:11;;;;;;;17.02;12.02;;;9.10;93.50;;;;;;5927182;40;20392;-73
2021/04/29 15:04:15;;;;;;;19.38;12.50;;;9.10;93.90;;;;;;5917929;40;20276;-74
2021/04/29 15:08:19;;;;;;;20.50;12.88;;;8.90;94.10;;;;;;5917574;40;20068;-74
2021/04/29 15:12:26;;;;;;;19.88;12.43;;;8.90;94.40;;;;;;5927592;40;20040;-73
2021/04/29 15:16:30;;;;;;;17.65;12.35;;;8.80;94.20;;;;;;5917537;40;20124;-73
2021/04/29 15:20:34;;;;;;;18.10;12.57;;;8.80;94.10;;;;;;5918654;40;20069;-73
2021/04/29 15:24:41;;;;;;;19.17;14.10;;;8.80;94.30;;;;;;5926969;40;20416;-73
2021/04/29 15:28:48;;;;;;;20.15;13.93;;;8.80;93.70;;;;;;5916791;40;20053;-73
2021/04/29 15:32:56;;;;;;;23.55;14.90;;;8.90;93.60;;;;;;5927412;40;20060;-74
2021/04/29 15:37:03;;;;;;;21.60;14.90;;;8.80;93.80;;;;;;5922711;40;20059;-73
2021/04/29 15:41:11;;;;;;;20.13;14.75;;;8.90;93.50;;;;;;5919478;40;23943;-73
2021/04/29 15:45:18;;;;;;;22.90;16.20;;;9.00;92.90;;;;;;5920192;40;20145;-74
2021/04/29 15:49:25;;;;;;;22.27;15.50;;;9.10;92.60;;;;;;5920020;40;20073;-74
2021/04/29 15:53:30;;;;;;;21.95;16.38;;;9.20;92.50;;;;;;5926165;40;20060;-73
2021/04/29 15:57:35;;;;;;;22.25;15.25;;;9.30;92.40;;;;;;5925470;40;20041;-73
2021/04/29 16:01:39;;;;;;;22.77;16.02;;;9.40;92.30;;;;;;5915041;40;20539;-73
2021/04/29 16:05:43;;;;;;;19.98;14.95;;;9.50;94.10;;;;;;5924623;40;20048;-73
2021/04/29 16:09:47;;;;;;;24.88;16.60;;;9.50;92.50;;;;;;5918854;40;20051;-74
2021/04/29 16:13:54;;;;;;;27.70;17.45;;;9.50;92.30;;;;;;5917533;40;20060;-74
2021/04/29 16:17:58;;;;;;;24.23;17.30;;;9.60;92.50;;;;;;5929453;40;20073;-73
2021/04/29 16:22:03;;;;;;;21.60;17.55;;;9.70;92.10;;;;;;5919648;40;20052;-74
2021/04/29 16:26:09;;;;;;;27.52;18.73;;;9.70;92.30;;;;;;5924937;40;20088;-73
2021/04/29 16:30:16;;;;;;;22.75;18.33;;;9.70;92.00;;;;;;5927384;40;20600;-74
2021/04/29 16:34:21;;;;;;;28.17;18.85;;;9.70;92.00;;;;;;5905840;40;20056;-74
2021/04/29 16:38:27;;;;;;;27.35;17.90;;;9.70;92.10;;;;;;5924453;40;20036;-73
2021/04/29 16:42:36;;;;;;;25.48;17.95;;;9.80;92.30;;;;;;5926366;40;20064;-73
2021/04/29 16:46:43;;;;;;;25.67;18.45;;;9.70;92.00;;;;;;5925776;40;20096;-74
2021/04/29 16:50:50;;;;;;;21.55;16.90;;;9.70;91.90;;;;;;5930455;40;20450;-74
2021/04/29 16:55:15;;;;;;;22.50;16.30;;;9.50;92.10;;;;;;5925985;39;20319;-74
2021/04/29 16:59:24;;;;;;;19.55;14.63;;;9.60;92.40;;;;;;5927665;40;20068;-74
2021/04/29 17:03:30;;;;;;;21.90;14.95;;;9.60;93.10;;;;;;5929776;40;20060;-74
2021/04/29 17:07:34;;;;;;;21.73;17.67;;;9.60;92.30;;;;;;5916359;40;20201;-74
2021/04/29 17:11:48;;;;;;;20.48;14.07;;;9.50;93.50;;;;;;5929125;40;20167;-74
2021/04/29 17:15:54;;;;;;;28.02;17.98;;;9.50;92.70;;;;;;5925890;40;20334;-74
2021/04/29 17:20:00;;;;;;;77.75;47.13;;;9.40;92.40;;;;;;5924616;40;20146;-74
2021/04/29 17:24:06;;;;;;;19.50;14.27;;;9.40;92.40;;;;;;5908741;40;20114;-73
2021/04/29 17:28:11;;;;;;;20.40;14.20;;;9.30;93.40;;;;;;5923763;40;20165;-74
2021/04/29 17:32:20;;;;;;;19.42;14.35;;;9.20;92.90;;;;;;5927787;40;20064;-73
2021/04/29 17:36:24;;;;;;;20.30;15.05;;;9.10;93.10;;;;;;5925836;40;20462;-73
2021/04/29 17:40:31;;;;;;;19.50;14.32;;;9.10;93.10;;;;;;5911017;40;20052;-73
2021/04/29 17:44:37;;;;;;;21.23;15.70;;;9.10;92.80;;;;;;5913424;40;20079;-73
2021/04/29 17:48:44;;;;;;;19.25;16.05;;;9.10;92.50;;;;;;5914509;40;20068;-73
2021/04/29 17:52:51;;;;;;;23.60;15.48;;;9.10;92.40;;;;;;5911274;40;20080;-73
2021/04/29 17:56:57;;;;;;;24.27;15.25;;;9.10;92.30;;;;;;5912066;40;20080;-73
2021/04/29 18:01:04;;;;;;;21.45;15.38;;;9.10;92.40;;;;;;5911715;40;20053;-74
2021/04/29 18:05:10;;;;;;;22.55;15.27;;;9.10;92.40;;;;;;5902600;40;20061;-74
2021/04/29 18:09:16;;;;;;;24.95;16.38;;;9.10;92.20;;;;;;5912176;40;20056;-74
2021/04/29 18:13:20;;;;;;;22.95;15.98;;;9.10;92.20;;;;;;5911082;40;20055;-74
2021/04/29 18:17:27;;;;;;;22.15;16.02;;;9.10;92.20;;;;;;5904681;40;20052;-74
2021/04/29 18:21:32;;;;;;;26.27;17.65;;;9.10;92.20;;;;;;5900625;40;20037;-73
2021/04/29 18:25:58;;;;;;;29.52;20.63;;;9.60;92.50;;;;;;5902359;40;20065;-73
2021/04/29 18:30:06;;;;;;;22.60;16.15;;;9.20;92.30;;;;;;5906482;40;20071;-74
2021/04/29 18:34:20;;;;;;;21.50;15.80;;;9.20;92.20;;;;;;5895816;40;20057;-74
2021/04/29 18:38:25;;;;;;;17.60;14.52;;;9.20;92.50;;;;;;5908562;40;20436;-74
2021/04/29 18:42:32;;;;;;;17.95;13.77;;;9.10;92.40;;;;;;5915986;40;20108;-75
2021/04/29 18:46:38;;;;;;;17.05;13.55;;;9.10;92.30;;;;;;5923497;40;20056;-74
2021/04/29 18:50:45;;;;;;;18.75;13.32;;;9.00;92.20;;;;;;5917783;40;20080;-76
2021/04/29 18:54:49;;;;;;;17.50;13.57;;;9.10;92.20;;;;;;5925415;40;20044;-75
2021/04/29 18:58:57;;;;;;;16.27;13.40;;;9.10;92.10;;;;;;5932585;40;20044;-73
2021/04/29 19:03:01;;;;;;;17.40;13.45;;;9.10;92.10;;;;;;5923998;40;20802;-73
2021/04/29 19:07:06;;;;;;;17.52;14.07;;;9.00;92.00;;;;;;5921411;40;20058;-73
2021/04/29 19:11:12;;;;;;;18.23;14.40;;;9.00;92.00;;;;;;5927822;40;20412;-74
2021/04/29 19:15:17;;;;;;;17.88;14.48;;;9.00;92.00;;;;;;5931641;40;20059;-72
2021/04/29 19:19:21;;;;;;;22.48;15.02;;;8.90;92.00;;;;;;5922180;40;20039;-73
2021/04/29 19:23:25;;;;;;;18.27;14.32;;;9.00;92.00;;;;;;5924846;40;20497;-73
2021/04/29 19:27:30;;;;;;;19.85;14.25;;;8.90;92.00;;;;;;5931781;40;20062;-73
2021/04/29 19:31:36;;;;;;;21.33;15.43;;;8.90;92.00;;;;;;5929921;40;20056;-72
2021/04/29 19:35:41;;;;;;;20.25;16.85;;;8.80;92.00;;;;;;5931934;40;20072;-72
2021/04/29 19:39:48;;;;;;;21.90;16.90;;;8.70;91.90;;;;;;5931786;40;20040;-75
2021/04/29 19:43:52;;;;;;;19.02;15.55;;;8.60;91.90;;;;;;5931300;40;20459;-75
2021/04/29 19:47:57;;;;;;;20.05;15.85;;;8.70;91.90;;;;;;5930754;40;20052;-73
2021/04/29 19:52:05;;;;;;;23.35;18.60;;;8.60;91.90;;;;;;5931268;40;20414;-74
2021/04/29 19:56:15;;;;;;;32.58;24.23;;;8.50;91.90;;;;;;5913363;40;20049;-74
2021/04/29 20:00:21;;;;;;;45.28;32.78;;;8.50;91.90;;;;;;5932940;40;20481;-74
2021/04/29 20:04:26;;;;;;;30.20;21.77;;;8.40;91.90;;;;;;5923945;40;20055;-74
2021/04/29 20:08:35;;;;;;;22.73;17.13;;;8.30;91.90;;;;;;5922438;40;20060;-73
2021/04/29 20:12:39;;;;;;;20.40;15.60;;;8.30;92.00;;;;;;5933642;40;20056;-74
2021/04/29 20:16:43;;;;;;;24.63;15.38;;;8.20;92.30;;;;;;5930554;40;20138;-75
2021/04/29 20:20:48;;;;;;;19.30;13.55;;;8.10;92.30;;;;;;5931648;40;20060;-74
2021/04/29 20:25:10;;;;;;;15.90;12.65;;;8.10;92.50;;;;;;5938701;39;20806;-72
2021/04/29 20:29:14;;;;;;;17.20;12.27;;;8.10;93.20;;;;;;5924801;39;20045;-72
2021/04/29 20:33:20;;;;;;;19.70;12.10;;;8.00;93.30;;;;;;5920720;39;20060;-74
2021/04/29 20:37:25;;;;;;;18.42;11.40;;;7.90;93.60;;;;;;5914100;39;20085;-74
2021/04/29 20:41:34;;;;;;;16.75;11.32;;;7.80;93.50;;;;;;5920176;39;20315;-73
2021/04/29 20:45:38;;;;;;;17.60;11.13;;;7.80;93.60;;;;;;5931800;39;20048;-73
2021/04/29 20:49:42;;;;;;;21.95;11.38;;;7.70;93.70;;;;;;5931862;39;20458;-72
2021/04/29 20:53:49;;;;;;;16.77;9.77;;;7.70;94.10;;;;;;5925929;40;20106;-72
2021/04/29 20:57:57;;;;;;;21.75;10.98;;;7.60;93.50;;;;;;5932353;39;20285;-73
2021/04/29 21:02:06;;;;;;;14.98;10.13;;;7.60;93.60;;;;;;5935802;40;20054;-71
2021/04/29 21:06:14;;;;;;;21.17;10.50;;;7.60;93.10;;;;;;5932964;39;20138;-72
2021/04/29 21:10:21;;;;;;;15.30;9.95;;;7.60;92.60;;;;;;5921883;40;20388;-72
2021/04/29 21:14:26;;;;;;;17.00;10.60;;;7.60;92.80;;;;;;5919713;39;20053;-72
2021/04/29 21:18:35;;;;;;;19.48;13.27;;;7.60;92.40;;;;;;5922567;40;20053;-72
2021/04/29 21:22:39;;;;;;;17.10;11.68;;;7.60;92.20;;;;;;5929531;39;20052;-72